Chehalis/Centralia, Washington
Current Conditions -  °F | °C
As of 10:15 AM on Friday 19 Dec 2014 (Local Time) from KCLS Reporting Station
Scattered Clouds Scattered Clouds  
Wind Chill: 50°   Ceiling: Unl
Heat Index: 50°   Visibility: 10mi
Dew Point: 45°   Wind: 14mph
Humidity: 82%   Direction: 180°S
Pressure: 29.96"   Gusts: NA
Location:  46.7°N, 122.95°W
Report Text: KCLS 191815Z AUTO 18012KT 10SM FEW038 SCT046 10/07 A2996 RMK AO2
Loading
Personal Weather Stations






























Interactive Weather Map New forecast layout! Learn more

10-Day Weather Forecast

Advertisements
Track Severe Weather on mobile